createdAt,value
2022-11-17T00:00:48.609Z,0.90
2022-11-17T00:02:22.503Z,0.80
2022-11-17T00:03:56.730Z,0.80
2022-11-17T00:05:27.843Z,0.80
2022-11-17T00:06:59.908Z,0.90
2022-11-17T00:08:32.355Z,0.60
2022-11-17T00:10:04.245Z,1.00
2022-11-17T00:11:55.409Z,0.80
2022-11-17T00:13:46.447Z,0.70
2022-11-17T00:15:17.633Z,0.80
2022-11-17T00:16:49.714Z,0.60
2022-11-17T00:18:39.880Z,0.80
2022-11-17T00:20:29.531Z,1.00
2022-11-17T00:22:00.683Z,0.70
2022-11-17T00:23:46.665Z,0.90
2022-11-17T00:25:17.871Z,0.90
2022-11-17T00:27:00.888Z,1.10
2022-11-17T00:28:37.196Z,0.90
2022-11-17T00:30:08.858Z,0.70
2022-11-17T00:32:00.027Z,1.20
2022-11-17T00:34:09.308Z,0.80
2022-11-17T00:35:40.351Z,0.60
2022-11-17T00:37:14.085Z,1.00
2022-11-17T00:38:45.126Z,0.90
2022-11-17T00:40:16.385Z,0.80
2022-11-17T00:41:47.718Z,1.00
2022-11-17T00:43:18.839Z,0.90
2022-11-17T00:44:49.878Z,0.90
2022-11-17T00:46:21.047Z,0.80
2022-11-17T00:47:52.154Z,1.20
2022-11-17T00:49:26.460Z,0.80
2022-11-17T00:50:57.453Z,1.10
2022-11-17T00:52:28.532Z,0.60
2022-11-17T00:54:00.190Z,1.00
2022-11-17T00:55:31.289Z,0.90
2022-11-17T00:57:02.893Z,1.00
2022-11-17T00:58:35.780Z,0.60
2022-11-17T01:00:08.324Z,0.80
2022-11-17T01:01:39.857Z,0.80
2022-11-17T01:03:11.001Z,0.70
2022-11-17T01:04:42.508Z,0.70
2022-11-17T01:06:18.358Z,0.90
2022-11-17T01:07:49.362Z,0.50
2022-11-17T01:09:23.348Z,0.80
2022-11-17T01:10:54.397Z,0.60
2022-11-17T01:12:25.516Z,0.50
2022-11-17T01:13:59.801Z,0.60
2022-11-17T01:15:32.699Z,0.80
2022-11-17T01:17:03.800Z,0.60
2022-11-17T01:18:35.983Z,0.70
2022-11-17T01:20:08.263Z,0.70
2022-11-17T01:21:39.277Z,0.70
2022-11-17T01:23:10.311Z,0.70
2022-11-17T01:24:41.361Z,0.60
2022-11-17T01:26:18.283Z,0.60
2022-11-17T01:27:49.326Z,0.70
2022-11-17T01:29:21.080Z,0.60
2022-11-17T01:31:05.921Z,0.60
2022-11-17T01:32:38.176Z,0.90
2022-11-17T01:34:09.837Z,0.70
2022-11-17T01:35:40.832Z,0.40
2022-11-17T01:37:21.074Z,0.80
2022-11-17T01:38:52.266Z,0.70
2022-11-17T01:40:23.266Z,0.80
2022-11-17T01:41:55.294Z,0.80
2022-11-17T01:43:46.073Z,0.90
2022-11-17T01:45:25.943Z,0.60
2022-11-17T01:47:00.773Z,0.60
2022-11-17T01:48:34.210Z,0.70
2022-11-17T01:50:35.370Z,0.50
2022-11-17T01:52:09.702Z,0.60
2022-11-17T01:53:44.595Z,0.70
2022-11-17T01:55:19.842Z,0.60
2022-11-17T01:56:58.909Z,0.60
2022-11-17T01:58:40.032Z,0.70
2022-11-17T02:00:12.531Z,0.70
2022-11-17T02:01:54.857Z,0.70
2022-11-17T02:03:27.817Z,0.90
2022-11-17T02:05:34.308Z,0.70
2022-11-17T02:07:18.904Z,0.60
2022-11-17T02:08:53.220Z,0.60
2022-11-17T02:10:24.633Z,0.70
2022-11-17T02:11:58.652Z,0.80
2022-11-17T02:13:29.984Z,0.90
2022-11-17T02:15:05.981Z,0.50
2022-11-17T02:16:37.016Z,0.60
2022-11-17T02:18:08.831Z,0.70
2022-11-17T02:19:43.737Z,0.60
2022-11-17T02:21:40.895Z,0.70
2022-11-17T02:23:37.792Z,0.60
2022-11-17T02:25:50.113Z,0.70
2022-11-17T02:27:32.968Z,0.50
2022-11-17T02:29:32.943Z,0.70
2022-11-17T02:31:24.429Z,0.60
2022-11-17T02:33:04.221Z,0.60
2022-11-17T02:35:25.693Z,0.60
2022-11-17T02:37:31.106Z,0.70
2022-11-17T02:39:16.211Z,0.50
2022-11-17T02:41:07.160Z,0.70
2022-11-17T02:43:01.863Z,0.50
2022-11-17T02:44:50.209Z,0.40
2022-11-17T02:46:24.848Z,0.40
2022-11-17T02:48:00.160Z,0.50
2022-11-17T02:49:38.073Z,0.60
2022-11-17T02:53:00.896Z,0.70
2022-11-17T02:54:33.403Z,0.50
2022-11-17T02:56:08.049Z,1.00
2022-11-17T02:57:41.275Z,0.70
2022-11-17T02:59:18.195Z,0.60
2022-11-17T03:01:31.793Z,0.50
2022-11-17T03:03:23.244Z,0.40
2022-11-17T03:05:33.099Z,0.80
2022-11-17T03:08:00.204Z,0.50
2022-11-17T03:09:55.569Z,0.40
2022-11-17T03:11:45.452Z,0.50
2022-11-17T03:13:54.738Z,0.40
2022-11-17T03:15:56.535Z,0.60
2022-11-17T03:17:43.326Z,0.40
2022-11-17T03:20:01.476Z,0.90
2022-11-17T03:21:45.524Z,0.50
2022-11-17T03:23:25.493Z,0.40
2022-11-17T03:25:08.920Z,0.40
2022-11-17T03:26:49.580Z,0.50
2022-11-17T03:28:28.201Z,0.40
2022-11-17T03:30:07.684Z,0.50
2022-11-17T03:31:43.380Z,0.40
2022-11-17T03:33:22.985Z,0.40
2022-11-17T03:35:09.375Z,0.40
2022-11-17T03:36:49.880Z,0.50
2022-11-17T03:38:27.211Z,0.30
2022-11-17T03:40:07.352Z,0.30
2022-11-17T03:41:47.646Z,0.40
2022-11-17T03:43:22.037Z,0.30
2022-11-17T03:45:20.536Z,0.30
2022-11-17T03:46:57.803Z,0.30
2022-11-17T03:48:50.085Z,0.40
2022-11-17T03:50:30.998Z,0.50
2022-11-17T03:52:05.858Z,0.30
2022-11-17T03:53:38.675Z,0.40
2022-11-17T03:55:13.234Z,0.30
2022-11-17T03:56:58.615Z,0.40
2022-11-17T03:58:34.952Z,0.30
2022-11-17T04:00:14.860Z,0.50
2022-11-17T04:01:46.129Z,0.50
2022-11-17T04:03:35.095Z,0.40
2022-11-17T04:05:07.275Z,0.30
2022-11-17T04:06:39.397Z,0.30
2022-11-17T04:08:11.595Z,0.40
2022-11-17T04:09:42.730Z,0.30
2022-11-17T04:11:32.313Z,0.30
2022-11-17T04:13:22.164Z,0.40
2022-11-17T04:15:12.359Z,0.30
2022-11-17T04:16:43.688Z,0.40
2022-11-17T04:18:15.508Z,0.30
2022-11-17T04:19:47.564Z,0.30
2022-11-17T04:21:19.342Z,0.40
2022-11-17T04:23:06.230Z,0.40
2022-11-17T04:24:37.319Z,0.50
2022-11-17T04:26:28.671Z,0.40
2022-11-17T04:28:19.899Z,0.30
2022-11-17T04:29:52.060Z,0.40
2022-11-17T04:31:32.051Z,0.40
2022-11-17T04:33:03.775Z,0.40
2022-11-17T04:34:35.473Z,0.40
2022-11-17T04:36:13.364Z,0.30
2022-11-17T04:37:44.581Z,0.20
2022-11-17T04:39:16.373Z,0.30
2022-11-17T04:41:06.366Z,0.50
2022-11-17T04:42:40.601Z,0.40
2022-11-17T04:44:16.410Z,0.40
2022-11-17T04:45:48.907Z,0.40
2022-11-17T04:47:20.415Z,0.60
2022-11-17T04:48:57.204Z,0.40
2022-11-17T04:50:28.421Z,0.40
2022-11-17T04:52:00.003Z,0.40
2022-11-17T04:53:33.035Z,0.50
2022-11-17T04:55:06.471Z,0.50
2022-11-17T04:56:39.497Z,0.30
2022-11-17T04:58:11.104Z,0.40
2022-11-17T04:59:42.465Z,0.50
2022-11-17T05:01:14.964Z,0.40
2022-11-17T05:02:52.283Z,0.50
2022-11-17T05:04:45.028Z,0.50
2022-11-17T05:06:36.999Z,0.30
2022-11-17T05:08:09.523Z,0.40
2022-11-17T05:10:04.075Z,0.40
2022-11-17T05:11:53.812Z,0.30
2022-11-17T05:13:26.819Z,0.40
2022-11-17T05:14:57.982Z,0.30
2022-11-17T05:16:48.309Z,0.50
2022-11-17T05:18:22.542Z,0.50
2022-11-17T05:20:05.849Z,0.50
2022-11-17T05:21:41.493Z,0.40
2022-11-17T05:23:31.258Z,0.40
2022-11-17T05:25:04.523Z,0.40
2022-11-17T05:26:38.220Z,0.30
2022-11-17T05:28:09.286Z,0.40
2022-11-17T05:29:40.837Z,0.60
2022-11-17T05:32:59.689Z,0.50
2022-11-17T05:34:31.850Z,0.40
2022-11-17T05:36:05.217Z,0.30
2022-11-17T05:37:36.533Z,0.40
2022-11-17T05:39:09.073Z,0.40
2022-11-17T05:40:40.758Z,0.40
2022-11-17T05:42:16.460Z,0.40
2022-11-17T05:43:49.668Z,0.60
2022-11-17T05:45:20.868Z,0.30
2022-11-17T05:46:52.863Z,0.30
2022-11-17T05:48:24.113Z,0.50
2022-11-17T05:50:03.813Z,0.40
2022-11-17T05:51:37.953Z,0.70
2022-11-17T05:53:09.361Z,0.60
2022-11-17T05:54:41.545Z,0.40
2022-11-17T05:56:57.190Z,0.50
2022-11-17T05:58:37.977Z,0.70
2022-11-17T06:00:14.067Z,0.50
2022-11-17T06:02:24.709Z,0.60
2022-11-17T06:04:05.252Z,0.50
2022-11-17T06:05:39.607Z,0.60
2022-11-17T06:07:11.133Z,0.50
2022-11-17T06:08:43.659Z,0.60
2022-11-17T06:10:15.064Z,0.80
2022-11-17T06:11:46.450Z,0.50
2022-11-17T06:13:20.424Z,0.50
2022-11-17T06:14:51.489Z,1.10
2022-11-17T06:16:33.723Z,0.60
2022-11-17T06:18:17.489Z,0.60
2022-11-17T06:20:01.056Z,0.80
2022-11-17T06:22:04.446Z,0.50
2022-11-17T06:23:33.404Z,0.70
2022-11-17T06:25:09.505Z,0.60
2022-11-17T06:26:54.067Z,0.60
2022-11-17T06:28:31.709Z,0.60
2022-11-17T06:30:06.945Z,0.60
2022-11-17T06:31:42.878Z,0.60
2022-11-17T06:33:18.580Z,0.70
2022-11-17T06:34:55.657Z,0.60
2022-11-17T06:36:29.806Z,0.70
2022-11-17T06:38:03.585Z,0.60
2022-11-17T06:39:35.604Z,0.50
2022-11-17T06:41:11.639Z,0.60
2022-11-17T06:43:02.637Z,0.90
2022-11-17T06:44:33.831Z,0.80
2022-11-17T06:46:05.632Z,0.50
2022-11-17T06:47:36.850Z,0.80
2022-11-17T06:49:09.030Z,0.70
2022-11-17T06:50:40.798Z,0.60
2022-11-17T06:52:12.543Z,0.60
2022-11-17T06:53:44.217Z,0.80
2022-11-17T06:55:15.615Z,0.80
2022-11-17T06:56:49.090Z,1.00
2022-11-17T06:58:20.999Z,0.70
2022-11-17T06:59:52.287Z,0.60
2022-11-17T07:01:24.648Z,0.90
2022-11-17T07:03:04.542Z,0.60
2022-11-17T07:04:38.285Z,0.60
2022-11-17T07:06:10.914Z,0.60
2022-11-17T07:07:42.168Z,0.50
2022-11-17T07:09:15.605Z,0.60
2022-11-17T07:10:53.960Z,0.60
2022-11-17T07:12:26.561Z,0.70
2022-11-17T07:13:58.029Z,0.60
2022-11-17T07:15:30.064Z,0.40
2022-11-17T07:17:01.815Z,0.40
2022-11-17T07:18:36.801Z,0.50
2022-11-17T07:20:10.447Z,0.50
2022-11-17T07:21:41.653Z,0.60
2022-11-17T07:23:15.622Z,0.40
2022-11-17T07:24:51.311Z,0.50
2022-11-17T07:26:22.828Z,0.50
2022-11-17T07:27:59.905Z,0.40
2022-11-17T07:29:31.257Z,0.60
2022-11-17T07:31:17.256Z,0.60
2022-11-17T07:32:53.404Z,0.50
2022-11-17T07:34:25.778Z,0.40
2022-11-17T07:36:10.400Z,0.50
2022-11-17T07:37:43.344Z,0.40
2022-11-17T07:39:21.468Z,0.30
2022-11-17T07:41:00.541Z,0.40
2022-11-17T07:42:32.659Z,0.50
2022-11-17T07:44:05.135Z,0.50
2022-11-17T07:45:37.335Z,0.50
2022-11-17T07:47:08.527Z,0.40
2022-11-17T07:48:43.651Z,0.30
2022-11-17T07:50:17.183Z,0.50
2022-11-17T07:51:48.423Z,0.40
2022-11-17T07:53:19.737Z,0.40
2022-11-17T07:54:51.596Z,0.30
2022-11-17T07:56:22.850Z,0.50
2022-11-17T07:57:59.856Z,0.40
2022-11-17T07:59:31.003Z,0.40
2022-11-17T08:01:12.374Z,0.30
2022-11-17T08:02:44.950Z,0.40
2022-11-17T08:04:18.835Z,0.40
2022-11-17T08:05:50.255Z,0.40
2022-11-17T08:07:24.820Z,0.40
2022-11-17T08:08:56.090Z,0.30
2022-11-17T08:10:35.574Z,0.60
2022-11-17T08:12:08.196Z,0.40
2022-11-17T08:13:41.793Z,0.40
2022-11-17T08:15:13.060Z,0.30
2022-11-17T08:16:45.398Z,0.50
2022-11-17T08:18:18.103Z,0.70
2022-11-17T08:21:40.616Z,0.30
2022-11-17T08:23:12.829Z,0.50
2022-11-17T08:24:45.949Z,0.40
2022-11-17T08:26:18.402Z,0.40
2022-11-17T08:27:51.829Z,0.50
2022-11-17T08:29:24.205Z,0.40
2022-11-17T08:30:55.980Z,0.50
2022-11-17T08:32:29.391Z,0.50
2022-11-17T08:34:00.712Z,0.30
2022-11-17T08:36:15.874Z,0.40
2022-11-17T08:37:47.085Z,0.40
2022-11-17T08:39:19.719Z,0.40
2022-11-17T08:40:50.989Z,0.50
2022-11-17T08:42:23.426Z,0.40
2022-11-17T08:43:54.757Z,0.50
2022-11-17T08:45:27.243Z,0.50
2022-11-17T08:46:59.009Z,0.40
2022-11-17T08:48:32.740Z,0.40
2022-11-17T08:50:25.838Z,0.30
2022-11-17T08:52:00.315Z,0.20
2022-11-17T08:53:33.695Z,0.30
2022-11-17T08:55:25.833Z,0.30
2022-11-17T08:56:59.372Z,0.40
2022-11-17T08:58:30.951Z,0.20
2022-11-17T09:00:03.834Z,0.20
2022-11-17T09:01:35.364Z,0.30
2022-11-17T09:03:11.706Z,0.20
2022-11-17T09:04:45.724Z,0.20
2022-11-17T09:06:17.336Z,0.40
2022-11-17T09:07:48.774Z,0.20
2022-11-17T09:09:20.370Z,0.60
2022-11-17T09:10:51.720Z,0.40
2022-11-17T09:12:26.015Z,0.30
2022-11-17T09:13:57.280Z,0.30
2022-11-17T09:15:28.512Z,0.30
2022-11-17T09:16:59.922Z,0.20
2022-11-17T09:18:31.350Z,0.40
2022-11-17T09:20:02.776Z,0.30
2022-11-17T09:21:34.880Z,0.30
2022-11-17T09:23:07.525Z,0.30
2022-11-17T09:24:39.587Z,0.30
2022-11-17T09:26:15.619Z,0.50
2022-11-17T09:27:50.565Z,0.50
2022-11-17T09:29:21.931Z,0.30
2022-11-17T09:30:53.233Z,0.30
2022-11-17T09:32:24.359Z,0.50
2022-11-17T09:33:59.438Z,0.40
2022-11-17T09:35:32.052Z,0.40
2022-11-17T09:37:03.171Z,0.40
2022-11-17T09:38:39.582Z,0.30
2022-11-17T09:40:21.054Z,0.40
2022-11-17T09:41:55.603Z,0.40
2022-11-17T09:43:34.510Z,0.60
2022-11-17T09:45:22.463Z,0.40
2022-11-17T09:46:56.448Z,0.40
2022-11-17T09:48:56.902Z,0.40
2022-11-17T09:50:37.379Z,0.40
2022-11-17T09:52:52.793Z,0.40
2022-11-17T09:54:47.643Z,0.50
2022-11-17T09:56:19.714Z,0.50
2022-11-17T09:58:00.527Z,0.50
2022-11-17T09:59:34.579Z,0.50
2022-11-17T10:01:12.384Z,0.30
2022-11-17T10:02:46.275Z,0.50
2022-11-17T10:04:18.045Z,0.40
2022-11-17T10:05:51.756Z,0.40
2022-11-17T10:07:29.816Z,0.40
2022-11-17T10:09:34.941Z,0.60
2022-11-17T10:11:32.026Z,0.40
2022-11-17T10:13:12.761Z,0.30
2022-11-17T10:14:48.623Z,0.40
2022-11-17T10:16:21.442Z,0.40
2022-11-17T10:17:53.279Z,0.40
2022-11-17T10:19:29.143Z,0.30
2022-11-17T10:21:02.218Z,0.50
2022-11-17T10:22:36.496Z,0.70
2022-11-17T10:24:08.720Z,0.70
2022-11-17T10:25:47.679Z,0.40
2022-11-17T10:27:34.164Z,0.40
2022-11-17T10:29:13.854Z,0.40
2022-11-17T10:31:01.896Z,0.30
2022-11-17T10:32:54.914Z,0.30
2022-11-17T10:34:38.880Z,0.30
2022-11-17T10:36:29.149Z,0.30
2022-11-17T10:38:20.171Z,0.40
2022-11-17T10:40:22.051Z,0.30
2022-11-17T10:42:04.996Z,0.30
2022-11-17T10:43:37.332Z,0.40
2022-11-17T10:45:16.942Z,0.40
2022-11-17T10:47:04.240Z,0.30
2022-11-17T10:48:38.852Z,0.40
2022-11-17T10:50:26.987Z,0.30
2022-11-17T10:52:14.272Z,0.60
2022-11-17T10:54:02.371Z,0.40
2022-11-17T10:55:43.470Z,0.50
2022-11-17T10:57:21.378Z,0.30
2022-11-17T10:59:33.110Z,0.50
2022-11-17T11:01:04.664Z,0.30
2022-11-17T11:02:40.280Z,0.40
2022-11-17T11:04:39.924Z,0.30
2022-11-17T11:06:26.153Z,0.30
2022-11-17T11:08:26.904Z,0.30
2022-11-17T11:10:26.770Z,0.30
2022-11-17T11:12:01.429Z,0.40
2022-11-17T11:13:52.133Z,0.40
2022-11-17T11:15:29.889Z,0.30
2022-11-17T11:17:12.350Z,0.30
2022-11-17T11:18:49.091Z,0.40
2022-11-17T11:20:37.855Z,0.30
2022-11-17T11:22:35.825Z,0.30
2022-11-17T11:24:57.272Z,0.20
2022-11-17T11:26:37.324Z,0.50
2022-11-17T11:28:55.449Z,0.30
2022-11-17T11:30:26.990Z,0.40
2022-11-17T11:32:29.999Z,0.40
2022-11-17T11:34:44.447Z,0.30
2022-11-17T11:36:55.383Z,0.30
2022-11-17T11:38:57.842Z,0.40
2022-11-17T11:40:45.986Z,0.30
2022-11-17T11:42:47.579Z,0.50
2022-11-17T11:44:45.205Z,0.40
2022-11-17T11:46:51.075Z,0.40
2022-11-17T11:48:36.094Z,0.30
2022-11-17T11:50:24.832Z,0.30
2022-11-17T11:52:02.550Z,0.30
2022-11-17T11:54:14.463Z,0.30
2022-11-17T11:56:01.563Z,0.40
2022-11-17T11:57:42.287Z,0.30
2022-11-17T12:00:02.403Z,0.30
2022-11-17T12:02:25.046Z,0.30
2022-11-17T12:04:50.706Z,0.20
2022-11-17T12:06:54.823Z,0.20
2022-11-17T12:08:49.216Z,0.20
2022-11-17T12:10:37.925Z,0.30
2022-11-17T12:12:22.130Z,0.30
2022-11-17T12:13:57.521Z,0.30
2022-11-17T12:15:28.774Z,0.30
2022-11-17T12:17:28.201Z,0.30
2022-11-17T12:19:02.015Z,0.30
2022-11-17T12:20:35.374Z,0.30
2022-11-17T12:22:06.536Z,0.40
2022-11-17T12:24:21.723Z,0.40
2022-11-17T12:25:58.569Z,0.30
2022-11-17T12:27:36.160Z,0.30
2022-11-17T12:29:27.146Z,0.30
2022-11-17T12:31:32.106Z,0.30
2022-11-17T12:33:12.112Z,0.30
2022-11-17T12:35:41.480Z,0.30
2022-11-17T12:37:21.681Z,0.20
2022-11-17T12:39:00.923Z,0.30
2022-11-17T12:40:48.282Z,0.30
2022-11-17T12:42:22.320Z,0.30
2022-11-17T12:44:45.855Z,0.30
2022-11-17T12:46:26.244Z,0.40
2022-11-17T12:48:26.431Z,0.30
2022-11-17T12:50:07.142Z,0.30
2022-11-17T12:51:54.888Z,0.30
2022-11-17T12:53:34.897Z,0.30
2022-11-17T12:55:17.942Z,0.40
2022-11-17T12:57:22.358Z,0.20
2022-11-17T12:59:59.352Z,0.50
2022-11-17T13:01:52.357Z,0.70
2022-11-17T13:04:02.101Z,0.30
2022-11-17T13:05:33.193Z,0.40
2022-11-17T13:07:19.674Z,0.20
2022-11-17T13:09:05.738Z,0.30
2022-11-17T13:10:37.139Z,0.30
2022-11-17T13:12:10.557Z,0.20
2022-11-17T13:13:46.933Z,0.20
2022-11-17T13:15:23.400Z,0.30
2022-11-17T13:16:54.578Z,0.30
2022-11-17T13:18:40.403Z,0.30
2022-11-17T13:20:27.969Z,0.30
2022-11-17T13:22:20.641Z,0.20
2022-11-17T13:23:53.083Z,0.40
2022-11-17T13:25:24.181Z,0.30
2022-11-17T13:27:01.714Z,0.40
2022-11-17T13:28:33.223Z,0.30
2022-11-17T13:30:27.593Z,0.30
2022-11-17T13:32:20.630Z,0.30
2022-11-17T13:34:16.856Z,0.40
2022-11-17T13:35:49.321Z,0.40
2022-11-17T13:37:29.142Z,0.50
2022-11-17T13:39:00.940Z,0.30
2022-11-17T13:40:35.171Z,0.30
2022-11-17T13:42:06.547Z,0.30
2022-11-17T13:43:39.795Z,0.30
2022-11-17T13:45:15.265Z,0.30
2022-11-17T13:46:46.354Z,0.30
2022-11-17T13:48:37.223Z,0.30
2022-11-17T13:50:26.670Z,0.20
2022-11-17T13:51:58.367Z,0.30
2022-11-17T13:53:32.440Z,0.30
2022-11-17T13:55:15.436Z,0.50
2022-11-17T13:56:46.419Z,0.30
2022-11-17T13:58:42.827Z,0.30
2022-11-17T14:00:16.799Z,0.40
2022-11-17T14:01:48.364Z,0.40
2022-11-17T14:03:36.708Z,0.50
2022-11-17T14:05:13.792Z,0.30
2022-11-17T14:07:02.740Z,0.30
2022-11-17T14:08:36.175Z,0.40
2022-11-17T14:10:33.566Z,0.40
2022-11-17T14:12:10.220Z,0.30
2022-11-17T14:14:00.692Z,0.40
2022-11-17T14:15:41.442Z,0.20
2022-11-17T14:17:21.709Z,0.30
2022-11-17T14:19:00.459Z,0.40
2022-11-17T14:20:35.471Z,0.50
2022-11-17T14:22:09.174Z,0.30
2022-11-17T14:23:43.921Z,0.30
2022-11-17T14:25:15.111Z,0.20
2022-11-17T14:26:46.198Z,0.30
2022-11-17T14:28:23.579Z,0.30
2022-11-17T14:29:54.718Z,0.30
2022-11-17T14:31:25.939Z,0.30
2022-11-17T14:33:03.636Z,0.50
2022-11-17T14:34:37.702Z,0.40
2022-11-17T14:36:17.383Z,0.40
2022-11-17T14:37:48.566Z,0.40
2022-11-17T14:39:20.250Z,0.40
2022-11-17T14:40:53.251Z,0.40
2022-11-17T14:42:24.304Z,0.50
2022-11-17T14:43:55.448Z,0.40
2022-11-17T14:45:26.572Z,0.50
2022-11-17T14:46:57.645Z,0.40
2022-11-17T14:48:28.777Z,0.40
2022-11-17T14:49:59.943Z,0.50
2022-11-17T14:51:31.943Z,0.40
2022-11-17T14:53:03.359Z,0.60
2022-11-17T14:54:34.564Z,0.40
2022-11-17T14:56:11.860Z,0.40
2022-11-17T14:57:42.918Z,0.50
2022-11-17T14:59:14.537Z,0.60
2022-11-17T15:00:45.937Z,0.40
2022-11-17T15:02:16.975Z,0.40
2022-11-17T15:03:52.369Z,0.70
2022-11-17T15:05:23.489Z,0.40
2022-11-17T15:06:54.676Z,0.60
2022-11-17T15:08:25.764Z,0.50
2022-11-17T15:09:57.027Z,0.50
2022-11-17T15:11:35.184Z,0.40
2022-11-17T15:13:11.170Z,0.50
2022-11-17T15:14:43.074Z,0.50
2022-11-17T15:16:14.209Z,0.40
2022-11-17T15:17:45.328Z,0.50
2022-11-17T15:19:21.035Z,0.50
2022-11-17T15:21:04.773Z,0.80
2022-11-17T15:22:35.828Z,0.70
2022-11-17T15:24:09.401Z,0.50
2022-11-17T15:25:40.499Z,0.40
2022-11-17T15:27:11.980Z,0.50
2022-11-17T15:28:43.114Z,0.30
2022-11-17T15:30:14.614Z,0.40
2022-11-17T15:31:45.660Z,0.50
2022-11-17T15:33:16.817Z,0.80
2022-11-17T15:34:47.886Z,0.60
2022-11-17T15:36:22.292Z,0.50
2022-11-17T15:37:53.325Z,0.60
2022-11-17T15:39:24.583Z,0.50
2022-11-17T15:40:57.552Z,0.60
2022-11-17T15:42:29.678Z,0.70
2022-11-17T15:44:00.805Z,0.50
2022-11-17T15:45:36.147Z,0.60
2022-11-17T15:47:07.221Z,0.90
2022-11-17T15:48:44.215Z,0.60
2022-11-17T15:50:15.961Z,0.60
2022-11-17T15:51:47.257Z,0.60
2022-11-17T15:53:18.333Z,1.60
2022-11-17T15:54:49.442Z,0.50
2022-11-17T16:14:02.927Z,0.40
2022-11-17T16:15:34.910Z,0.60
2022-11-17T16:17:06.768Z,0.40
2022-11-17T16:18:41.161Z,0.50
2022-11-17T16:20:13.308Z,0.60
2022-11-17T16:21:45.165Z,0.50
2022-11-17T16:23:17.613Z,0.60
2022-11-17T16:24:50.768Z,0.50
2022-11-17T16:26:26.759Z,0.60
2022-11-17T16:27:59.784Z,0.60
2022-11-17T16:29:31.607Z,0.50
2022-11-17T16:31:18.950Z,0.50
2022-11-17T16:32:50.718Z,0.50
2022-11-17T16:34:22.617Z,0.50
2022-11-17T16:35:54.449Z,0.50
2022-11-17T16:37:26.189Z,0.90
2022-11-17T16:39:21.615Z,0.60
2022-11-17T16:40:53.561Z,0.60
2022-11-17T16:42:25.499Z,0.80
2022-11-17T16:43:57.447Z,0.80
2022-11-17T16:45:29.311Z,0.70
2022-11-17T16:47:01.142Z,0.50
2022-11-17T16:48:34.224Z,0.60
2022-11-17T16:50:06.659Z,0.70
2022-11-17T16:51:39.127Z,0.60
2022-11-17T16:53:10.952Z,0.60
2022-11-17T16:54:42.800Z,0.60
2022-11-17T16:56:16.056Z,0.50
2022-11-17T16:57:47.819Z,0.70
2022-11-17T16:59:19.829Z,0.80
2022-11-17T17:00:51.948Z,0.50
2022-11-17T17:02:26.196Z,0.50
2022-11-17T17:04:04.373Z,0.70
2022-11-17T17:05:40.784Z,0.60
2022-11-17T17:07:12.634Z,0.70
2022-11-17T17:08:44.880Z,1.30
2022-11-17T17:10:16.952Z,0.70
2022-11-17T17:11:48.879Z,0.80
2022-11-17T17:13:20.808Z,1.00
2022-11-17T17:14:52.581Z,1.00
2022-11-17T17:16:25.746Z,1.00
2022-11-17T17:17:57.495Z,0.80
2022-11-17T17:19:29.570Z,0.90
2022-11-17T17:21:02.024Z,1.00
2022-11-17T17:22:34.636Z,0.80
2022-11-17T17:24:07.820Z,1.00
2022-11-17T17:25:40.028Z,1.20
2022-11-17T17:27:11.871Z,1.00
2022-11-17T17:28:47.091Z,1.20
2022-11-17T17:30:19.187Z,0.90
2022-11-17T17:31:50.988Z,0.90
2022-11-17T17:33:22.830Z,1.00
2022-11-17T17:34:54.582Z,0.90
2022-11-17T17:36:28.618Z,1.30
2022-11-17T17:38:00.480Z,1.10
2022-11-17T17:39:34.408Z,1.40
2022-11-17T17:41:13.288Z,1.60
2022-11-17T17:42:45.054Z,1.50
2022-11-17T17:44:19.718Z,1.20
2022-11-17T17:45:51.601Z,1.40
2022-11-17T17:47:23.432Z,1.10
2022-11-17T17:48:56.381Z,1.00
2022-11-17T17:50:28.165Z,1.30
2022-11-17T17:51:59.887Z,1.10
2022-11-17T17:53:32.165Z,1.40
2022-11-17T17:55:04.268Z,1.00
2022-11-17T17:56:36.099Z,1.40
2022-11-17T17:58:08.699Z,1.30
2022-11-17T17:59:40.587Z,1.00
2022-11-17T18:01:14.411Z,1.20
2022-11-17T18:02:46.221Z,1.10
2022-11-17T18:04:20.697Z,1.60
2022-11-17T18:05:52.747Z,1.80
2022-11-17T18:07:24.656Z,2.30
2022-11-17T18:08:58.823Z,1.70
2022-11-17T18:10:31.041Z,1.80
2022-11-17T18:12:02.958Z,2.00
2022-11-17T18:13:39.717Z,1.80
2022-11-17T18:15:12.392Z,2.10
2022-11-17T18:16:44.165Z,1.50
2022-11-17T18:18:16.547Z,1.70
2022-11-17T18:19:48.590Z,1.50
2022-11-17T18:21:20.392Z,1.40
2022-11-17T18:22:52.092Z,1.30
2022-11-17T18:24:24.025Z,1.40
2022-11-17T18:25:57.708Z,1.50
2022-11-17T18:27:30.563Z,1.50
2022-11-17T18:29:18.655Z,1.60
2022-11-17T18:30:51.237Z,1.60
2022-11-17T18:32:23.056Z,1.50
2022-11-17T18:34:01.599Z,1.50
2022-11-17T18:35:38.322Z,1.30
2022-11-17T18:37:10.651Z,1.30
2022-11-17T18:38:42.697Z,1.40
2022-11-17T18:40:16.116Z,1.40
2022-11-17T18:41:48.191Z,1.30
2022-11-17T18:44:41.628Z,1.50
2022-11-17T18:46:17.885Z,1.30
2022-11-17T18:47:50.187Z,1.10
2022-11-17T18:49:21.947Z,1.20
2022-11-17T18:51:18.187Z,1.20
2022-11-17T18:52:46.349Z,1.50
2022-11-17T18:54:18.279Z,1.20
2022-11-17T18:55:50.182Z,1.00
2022-11-17T18:57:23.005Z,0.90
2022-11-17T18:58:55.311Z,1.00
2022-11-17T19:00:27.183Z,1.10
2022-11-17T19:01:59.120Z,1.10
2022-11-17T19:03:30.928Z,1.00
2022-11-17T19:05:02.832Z,1.20
2022-11-17T19:06:34.884Z,1.10
2022-11-17T19:08:06.619Z,1.30
2022-11-17T19:09:39.497Z,1.30
2022-11-17T19:11:12.326Z,1.10
2022-11-17T19:12:44.137Z,1.20
2022-11-17T19:14:16.695Z,1.30
2022-11-17T19:15:50.326Z,1.10
2022-11-17T19:17:22.171Z,1.60
2022-11-17T19:18:56.663Z,1.10
2022-11-17T19:20:28.399Z,1.20
2022-11-17T19:22:00.210Z,1.10
2022-11-17T19:23:37.620Z,1.20
2022-11-17T19:25:10.824Z,1.00
2022-11-17T19:26:43.094Z,0.90
2022-11-17T19:28:14.976Z,0.90
2022-11-17T19:29:46.793Z,0.90
2022-11-17T19:31:20.414Z,1.00
2022-11-17T19:32:52.196Z,0.80
2022-11-17T19:34:23.937Z,0.90
2022-11-17T19:35:55.761Z,0.70
2022-11-17T19:37:27.647Z,0.90
2022-11-17T20:19:53.780Z,1.00
2022-11-17T20:21:30.328Z,1.10
2022-11-17T20:23:02.203Z,0.80
2022-11-17T20:24:34.126Z,0.90
2022-11-17T20:26:11.828Z,1.20
2022-11-17T20:27:43.955Z,0.90
2022-11-17T20:29:16.211Z,1.20
2022-11-17T20:30:48.170Z,0.80
2022-11-17T20:32:21.698Z,1.10
2022-11-17T20:34:00.626Z,1.10
2022-11-17T20:35:36.871Z,1.10
2022-11-17T20:37:08.713Z,1.10
2022-11-17T20:38:40.535Z,1.20
2022-11-17T20:40:12.558Z,0.90
2022-11-17T20:41:44.370Z,1.30
2022-11-17T20:43:16.135Z,1.10
2022-11-17T20:44:47.904Z,1.30
2022-11-17T20:46:21.644Z,1.00
2022-11-17T20:47:53.402Z,1.00
2022-11-17T20:49:25.270Z,1.00
2022-11-17T20:51:06.939Z,1.30
2022-11-17T20:52:40.090Z,1.00
2022-11-17T20:54:12.492Z,1.20
2022-11-17T20:55:44.223Z,1.60
2022-11-17T20:57:16.002Z,1.00
2022-11-17T20:58:48.307Z,1.10
2022-11-17T21:00:20.450Z,1.50
2022-11-17T21:01:52.220Z,1.30
2022-11-17T21:03:27.032Z,1.20
2022-11-17T21:04:58.807Z,1.50
2022-11-17T21:06:30.884Z,1.50
2022-11-17T21:08:02.644Z,1.30
2022-11-17T21:09:34.416Z,1.60
2022-11-17T21:11:35.943Z,1.40
2022-11-17T21:13:08.299Z,1.50
2022-11-17T21:14:40.167Z,1.50
2022-11-17T21:16:15.428Z,1.20
2022-11-17T21:18:06.172Z,1.30
2022-11-17T21:19:40.961Z,1.10
2022-11-17T21:21:14.331Z,1.30
2022-11-17T21:22:46.182Z,1.10
2022-11-17T21:24:17.966Z,0.90
2022-11-17T21:25:52.210Z,1.10
2022-11-17T21:27:24.088Z,0.80
2022-11-17T21:29:01.765Z,1.50
2022-11-17T21:30:39.514Z,0.90
2022-11-17T21:32:12.410Z,1.40
2022-11-17T21:33:45.203Z,1.10
2022-11-17T21:35:17.199Z,1.20
2022-11-17T21:36:50.226Z,1.00
2022-11-17T21:38:22.018Z,1.20
2022-11-17T21:39:54.497Z,1.20
2022-11-17T21:41:35.145Z,1.00
2022-11-17T21:43:07.324Z,1.20
2022-11-17T21:44:40.092Z,0.80
2022-11-17T21:46:25.289Z,1.00
2022-11-17T21:48:01.610Z,1.20
2022-11-17T21:49:33.724Z,1.40
2022-11-17T21:51:13.919Z,1.30
2022-11-17T21:52:46.189Z,1.00
2022-11-17T21:54:18.018Z,0.90
2022-11-17T21:55:49.795Z,1.10
2022-11-17T21:57:21.852Z,1.10
2022-11-17T21:58:58.549Z,1.10
2022-11-17T22:00:31.279Z,1.00
2022-11-17T22:02:03.198Z,1.30
2022-11-17T22:03:35.402Z,1.10
2022-11-17T22:05:07.999Z,1.00
2022-11-17T22:06:39.890Z,1.00
2022-11-17T22:08:11.597Z,1.20
2022-11-17T22:09:43.391Z,1.30
2022-11-17T22:11:37.675Z,1.40
2022-11-17T22:13:12.677Z,1.10
2022-11-17T22:14:46.120Z,1.40
2022-11-17T22:16:17.936Z,1.20
2022-11-17T22:17:49.813Z,1.10
2022-11-17T22:19:24.679Z,1.00
2022-11-17T22:20:56.591Z,1.30
2022-11-17T22:22:30.420Z,1.50
2022-11-17T22:24:04.317Z,1.40
2022-11-17T22:26:23.364Z,1.00
2022-11-17T22:27:57.471Z,1.10
2022-11-17T22:29:29.354Z,1.00
2022-11-17T22:31:07.085Z,1.40
2022-11-17T22:32:42.542Z,1.10
2022-11-17T22:34:18.736Z,1.10
2022-11-17T22:35:53.458Z,1.10
2022-11-17T22:37:25.234Z,1.50
2022-11-17T22:38:57.075Z,1.40
2022-11-17T22:40:28.911Z,1.20
